Weather reports worldwide

Advertisment
Desenzano, Italy (16089): temperature & dewpoint: 09.10.2019 19:00:00 - 15.10.2019 19:00:00 (CEST)Desenzano, Italy (16089): wind speed: 09.10.2019 19:00:00 - 15.10.2019 19:00:00 (CEST)Desenzano, Italy (16089): wind direction: 09.10.2019 19:00:00 - 15.10.2019 19:00:00 (CEST)Desenzano, Italy (16089): reduced air pressure: 09.10.2019 19:00:00 - 15.10.2019 19:00:00 (CEST)
Date & Time tt [°C] td [°C] ff [km/h] ff [kn] dd ppp [hPa]
15.10.2019 19:00:00 18,7 18,6 11 6 NE 1010,3
15.10.2019 18:00:00 18,6 16,5 5 3 SSE 1010,3
15.10.2019 17:00:00 21,9 19,6 21 11 ENE 1009,8
15.10.2019 16:00:00 22,9 19,0 22 12 ENE 1010,9
15.10.2019 15:00:00 23,1 19,4 21 11 ENE 1011,5
15.10.2019 14:00:00 21,9 19,0 16 9 ENE 1012,8
15.10.2019 13:00:00 22,3 19,6 21 11 ENE 1013,8
15.10.2019 12:00:00 20,5 19,3 13 7 N 1014,9
15.10.2019 11:00:00 20,1 18,5 9 5 NNE 1015,5
15.10.2019 10:00:00 19,6 19,4 11 6 N 1015,8
15.10.2019 09:00:00 19,9 19,7 13 7 N 1015,5
15.10.2019 08:00:00 19,0 18,6 4 2 NNE 1016,0
15.10.2019 07:00:00 18,9 18,8 5 3 NE 1016,3
15.10.2019 06:00:00 18,9 18,8 4 2 ENE 1016,5
15.10.2019 05:00:00 19,1 18,9 0 0 N 1017,1
15.10.2019 04:00:00 19,2 19,1 4 2 NE 1017,7
15.10.2019 03:00:00 19,0 18,9 4 2 ENE 1018,3
15.10.2019 02:00:00 18,8 17,9 0 0 N 1018,8
15.10.2019 01:00:00 19,3 17,9 0 0 N 1019,1
15.10.2019 00:00:00 19,6 18,2 0 0 N 1019,5
14.10.2019 23:00:00 19,7 18,3 0 0 N 1019,8
14.10.2019 22:00:00 19,8 18,7 0 0 N 1019,5
14.10.2019 21:00:00 20,1 19,2 0 0 N 1019,4
14.10.2019 20:00:00 20,1 18,9 0 0 N 1019,7
14.10.2019 19:00:00 20,9 17,6 0 0 N 1019,5
14.10.2019 18:00:00 22,1 18,6 0 0 N 1019,5
14.10.2019 17:00:00 21,7 19,7 8 4 NNE 1019,7
14.10.2019 16:00:00 21,9 19,0 8 4 NE 1020,1
14.10.2019 15:00:00 21,6 18,3 8 4 NE 1020,6
14.10.2019 14:00:00 21,0 17,3 4 2 NNE 1021,2
14.10.2019 13:00:00 20,0 17,0 5 3 NNE 1022,0
14.10.2019 12:00:00 19,6 17,9 8 4 NNW 1022,4
14.10.2019 11:00:00 18,5 18,4 2 1 NW 1022,7
14.10.2019 10:00:00 17,1 17,0 0 0 N 1022,7
14.10.2019 09:00:00 14,9 14,8 0 0 N 1022,8
14.10.2019 08:00:00 14,0 13,9 0 0 N 1022,7
14.10.2019 07:00:00 14,2 14,1 0 0 N 1022,6
14.10.2019 06:00:00 14,3 14,2 0 0 N 1022,8
14.10.2019 05:00:00 14,2 14,1 0 0 N 1022,8
14.10.2019 04:00:00 14,4 14,3 0 0 N 1022,8
14.10.2019 03:00:00 14,5 14,4 0 0 N 1023,3
14.10.2019 02:00:00 15,0 14,9 2 1 S 1023,6
14.10.2019 01:00:00 15,1 15,0 0 0 N 1023,7
14.10.2019 00:00:00 15,1 15,0 0 0 N 1023,8
13.10.2019 23:00:00 15,6 15,1 2 1 SSW 1023,7
13.10.2019 22:00:00 16,5 15,8 0 0 N 1023,6
13.10.2019 21:00:00 17,0 15,6 0 0 N 1023,5
13.10.2019 20:00:00 17,8 15,5 0 0 N 1023,5
13.10.2019 19:00:00 19,3 16,1 0 0 N 1023,1
13.10.2019 18:00:00 20,9 16,8 4 2 S 1022,7
13.10.2019 17:00:00 21,3 17,0 2 1 NNW 1022,6
13.10.2019 16:00:00 21,8 17,1 4 2 S 1023,0
13.10.2019 15:00:00 21,3 17,4 4 2 SSW 1023,1
13.10.2019 14:00:00 20,8 17,3 4 2 S 1023,6
13.10.2019 13:00:00 20,1 17,1 4 2 SSE 1024,1
13.10.2019 12:00:00 19,2 16,2 0 0 N 1024,2
13.10.2019 11:00:00 18,7 16,8 0 0 N 1024,3
13.10.2019 10:00:00 17,8 17,1 5 3 NW 1024,0
13.10.2019 09:00:00 16,2 16,1 4 2 WNW 1023,6
13.10.2019 08:00:00 15,1 15,0 2 1 W 1023,6
13.10.2019 07:00:00 14,2 14,1 0 0 N 1023,3
13.10.2019 06:00:00 14,2 14,1 0 0 N 1023,2
13.10.2019 05:00:00 14,3 14,2 0 0 N 1023,5
13.10.2019 04:00:00 14,5 14,4 0 0 N 1023,5
13.10.2019 03:00:00 14,8 14,7 0 0 N 1023,9
13.10.2019 02:00:00 15,0 14,8 0 0 N 1023,9
13.10.2019 01:00:00 15,6 15,2 0 0 N 1024,1
13.10.2019 00:00:00 16,5 16,0 0 0 N 1024,1
12.10.2019 23:00:00 16,5 15,5 0 0 N 1024,0
12.10.2019 22:00:00 17,0 15,6 2 1 S 1024,1
12.10.2019 21:00:00 17,2 15,3 0 0 N 1023,8
12.10.2019 20:00:00 18,5 15,7 0 0 N 1023,6
12.10.2019 19:00:00 19,6 16,2 0 0 N 1023,1
12.10.2019 18:00:00 21,0 16,5 0 0 N 1022,7
12.10.2019 17:00:00 21,5 16,4 2 1 SSE 1022,8
12.10.2019 16:00:00 21,4 16,5 0 0 N 1022,8
12.10.2019 15:00:00 20,8 16,3 4 2 NNE 1023,1
12.10.2019 14:00:00 19,9 15,3 4 2 NNE 1023,6
12.10.2019 13:00:00 19,4 14,4 4 2 NNE 1024,3
12.10.2019 12:00:00 18,7 14,5 4 2 N 1024,5
12.10.2019 11:00:00 18,1 14,7 15 8 NNW 1024,4
12.10.2019 10:00:00 17,2 15,3 13 7 NW 1024,2
12.10.2019 09:00:00 14,7 14,6 4 2 WNW 1023,9
12.10.2019 08:00:00 13,6 12,5 2 1 SW 1023,5
12.10.2019 07:00:00 15,2 14,5 5 3 WNW 1023,3
12.10.2019 06:00:00 16,3 16,2 8 4 WNW 1023,3
12.10.2019 05:00:00 14,1 13,7 0 0 N 1023,3
12.10.2019 04:00:00 14,5 13,2 0 0 N 1023,3
12.10.2019 03:00:00 16,9 16,8 8 4 WNW 1023,4
12.10.2019 02:00:00 14,7 14,6 5 3 NW 1023,7
12.10.2019 01:00:00 14,4 14,0 0 0 N 1023,9
12.10.2019 00:00:00 15,0 14,1 0 0 N 1023,9
11.10.2019 23:00:00 15,5 14,5 0 0 N 1023,7
11.10.2019 22:00:00 16,3 14,4 0 0 N 1023,4
11.10.2019 21:00:00 17,1 14,3 0 0 N 1023,2
11.10.2019 20:00:00 18,0 14,0 4 2 S 1022,9
11.10.2019 19:00:00 19,8 15,0 0 0 N 1022,4
11.10.2019 18:00:00 21,2 15,4 2 1 SSW 1022,4
11.10.2019 17:00:00 21,5 15,5 0 0 N 1022,5
11.10.2019 16:00:00 20,8 16,1 4 2 N 1022,8
11.10.2019 15:00:00 20,7 14,9 4 2 N 1023,4
11.10.2019 14:00:00 20,7 13,6 4 2 NNW 1024,2
11.10.2019 13:00:00 19,8 13,9 5 3 NW 1024,9
11.10.2019 12:00:00 18,7 14,1 4 2 NNW 1025,2
11.10.2019 11:00:00 17,8 13,6 5 3 NNW 1025,2
11.10.2019 10:00:00 17,5 13,3 11 6 N 1024,9
11.10.2019 09:00:00 17,4 14,4 9 5 N 1024,2
11.10.2019 08:00:00 17,6 13,4 15 8 N 1023,5
11.10.2019 07:00:00 17,6 13,6 8 4 N 1023,1
11.10.2019 06:00:00 17,8 14,8 16 9 N 1023,0
11.10.2019 05:00:00 18,0 15,0 18 10 N 1022,9
11.10.2019 04:00:00 16,5 15,1 4 2 W 1022,7
11.10.2019 03:00:00 17,9 16,3 13 7 NW 1022,1
11.10.2019 02:00:00 17,5 17,4 4 2 NE 1022,0
11.10.2019 01:00:00 16,1 16,0 9 5 NW 1021,4
11.10.2019 00:00:00 14,9 14,8 2 1 WSW 1021,0
10.10.2019 23:00:00 14,7 14,5 0 0 N 1020,2
10.10.2019 22:00:00 14,9 14,2 4 2 S 1019,7
10.10.2019 21:00:00 16,0 14,1 0 0 N 1018,7
10.10.2019 20:00:00 17,1 14,5 2 1 SSE 1017,8
10.10.2019 19:00:00 18,4 14,8 0 0 N 1016,9
10.10.2019 18:00:00 19,8 15,0 4 2 SSW 1016,4
10.10.2019 17:00:00 20,6 15,5 4 2 SSW 1015,9
10.10.2019 16:00:00 20,8 15,5 4 2 WSW 1015,7
10.10.2019 15:00:00 20,9 15,1 4 2 SW 1015,8
10.10.2019 14:00:00 21,4 16,5 5 3 SW 1016,0
10.10.2019 13:00:00 20,3 16,9 5 3 SW 1016,3
10.10.2019 12:00:00 18,4 17,2 0 0 N 1016,4
10.10.2019 11:00:00 17,4 17,3 0 0 N 1016,2
10.10.2019 10:00:00 16,7 16,6 0 0 N 1016,1
10.10.2019 09:00:00 16,0 15,9 2 1 SW 1015,5
10.10.2019 08:00:00 15,6 15,5 2 1 SW 1015,1
10.10.2019 07:00:00 15,4 15,3 2 1 SSW 1014,8
10.10.2019 06:00:00 15,1 15,0 0 0 N 1014,8
10.10.2019 05:00:00 15,3 15,2 2 1 SSW 1014,3
10.10.2019 04:00:00 15,6 15,5 2 1 WSW 1014,4
10.10.2019 03:00:00 15,5 15,4 4 2 SW 1014,3
10.10.2019 02:00:00 15,5 15,4 0 0 N 1014,8
10.10.2019 01:00:00 15,3 15,2 4 2 SSW 1014,7
10.10.2019 00:00:00 15,2 15,1 4 2 SSW 1014,4
09.10.2019 23:00:00 16,1 16,0 0 0 N 1014,1
09.10.2019 22:00:00 16,3 16,2 2 1 SW 1014,2
09.10.2019 21:00:00 16,5 16,3 0 0 N 1014,5
09.10.2019 20:00:00 16,9 16,8 13 7 WNW 1014,5
09.10.2019 19:00:00 17,3 16,4 18 10 WNW 1014,2

tt = temperature
td = dewpoint
ff = wind speed
dd = wind direction
ppp = reduced air pressure

Next stations